Time;durP1;ratioP1;P1;durP2;ratioP2;P2;SDS_P1;SDS_P2;PMS_P1;PMS_P2;Temp;Humidity;BMP_temperature;BMP_pressure;BME280_temperature;BME280_humidity;BME280_pressure;Samples;Min_cycle;Max_cycle;Signal;HPM_P1;HPM_P2
2022/04/16 00:00:00;;;;;;;24.03;15.87;;;;;;;6.44;65.27;102433.13;687862;28;1119;-82
2022/04/16 00:00:22;;;;;;;25.25;15.98;;;;;;;6.45;65.15;102434.06;687639;28;1073;-82
2022/04/16 00:00:43;;;;;;;25.27;15.80;;;;;;;6.41;65.14;102429.41;690533;28;1757;-82
2022/04/16 00:01:04;;;;;;;23.80;15.50;;;;;;;6.42;65.08;102434.72;691545;28;1329;-81
2022/04/16 00:01:25;;;;;;;23.17;15.32;;;;;;;6.49;65.33;102441.25;690586;28;1219;-82
2022/04/16 00:01:45;;;;;;;23.63;15.60;;;;;;;6.43;65.17;102430.41;689756;28;839;-82
2022/04/16 00:02:07;;;;;;;25.50;15.70;;;;;;;6.41;65.28;102427.75;685715;28;1190;-81
2022/04/16 00:02:29;;;;;;;26.85;16.13;;;;;;;6.39;65.16;102428.41;684980;28;1283;-82
2022/04/16 00:02:56;;;;;;;29.17;16.30;;;;;;;6.36;64.98;102418.72;687989;28;850;-82
2022/04/16 00:03:17;;;;;;;29.02;16.20;;;;;;;6.51;65.14;102446.56;685040;28;1293;-82
2022/04/16 00:03:38;;;;;;;27.42;16.05;;;;;;;6.38;65.17;102426.63;682421;29;966;-82
2022/04/16 00:03:59;;;;;;;24.52;16.00;;;;;;;6.42;65.09;102436.41;683212;28;1475;-81
2022/04/16 00:04:22;;;;;;;24.23;16.07;;;;;;;6.46;65.16;102441.03;682485;29;1081;-82
2022/04/16 00:04:45;;;;;;;23.35;15.82;;;;;;;6.40;65.11;102425.03;684566;28;1234;-81
2022/04/16 00:05:06;;;;;;;23.58;15.68;;;;;;;6.40;64.99;102436.28;689554;28;1135;-81
2022/04/16 00:05:27;;;;;;;23.80;15.77;;;;;;;6.37;64.90;102430.88;690384;28;1315;-82
2022/04/16 00:05:52;;;;;;;24.73;15.93;;;;;;;6.40;64.91;102431.09;691943;28;901;-82
2022/04/16 00:06:13;;;;;;;25.15;16.05;;;;;;;6.40;64.96;102440.59;690521;28;1062;-82
2022/04/16 00:06:34;;;;;;;24.92;16.48;;;;;;;6.43;65.20;102440.78;690698;28;961;-81
2022/04/16 00:06:57;;;;;;;22.58;16.08;;;;;;;6.40;65.50;102444.06;690526;28;1179;-82
2022/04/16 00:07:17;;;;;;;23.25;16.00;;;;;;;6.33;65.14;102435.75;687556;28;1889;-81
2022/04/16 00:07:38;;;;;;;25.10;16.30;;;;;;;6.34;64.93;102435.88;687795;28;1005;-81
2022/04/16 00:08:07;;;;;;;25.10;15.70;;;;;;;6.27;65.09;102424.13;688629;28;1211;-81
2022/04/16 00:08:29;;;;;;;23.13;14.90;;;;;;;6.33;65.23;102438.34;690400;28;1684;-81
2022/04/16 00:08:50;;;;;;;24.35;14.82;;;;;;;6.28;65.28;102431.13;688011;28;858;-82
2022/04/16 00:09:11;;;;;;;25.80;15.55;;;;;;;6.28;65.46;102438.88;688798;28;1572;-81
2022/04/16 00:09:31;;;;;;;27.88;15.40;;;;;;;6.26;65.16;102437.88;687436;28;1004;-81
2022/04/16 00:09:52;;;;;;;27.35;15.20;;;;;;;6.31;64.99;102435.63;690314;28;1066;-81
2022/04/16 00:10:12;;;;;;;26.15;14.98;;;;;;;6.32;65.06;102441.72;685211;28;1068;-81
2022/04/16 00:10:37;;;;;;;24.83;15.27;;;;;;;6.34;65.03;102447.91;687802;28;1284;-81
2022/04/16 00:10:59;;;;;;;23.75;14.75;;;;;;;6.25;65.25;102430.91;687789;28;1279;-81
2022/04/16 00:11:19;;;;;;;25.98;15.02;;;;;;;6.33;65.09;102447.03;687584;28;1670;-81
2022/04/16 00:11:40;;;;;;;25.20;15.17;;;;;;;6.26;65.25;102434.41;690608;28;875;-81
2022/04/16 00:12:00;;;;;;;22.92;15.25;;;;;;;6.28;65.23;102438.00;688677;28;1363;-81
2022/04/16 00:12:21;;;;;;;22.23;15.50;;;;;;;6.24;65.08;102439.47;690248;28;1326;-81
2022/04/16 00:12:43;;;;;;;21.17;15.57;;;;;;;6.23;65.03;102429.91;687773;28;1064;-82
2022/04/16 00:13:04;;;;;;;21.35;15.68;;;;;;;6.25;65.06;102430.91;689332;28;1206;-81
2022/04/16 00:13:24;;;;;;;21.80;15.45;;;;;;;6.34;65.19;102445.31;690596;28;815;-80
2022/04/16 00:13:46;;;;;;;22.70;15.23;;;;;;;6.25;65.45;102430.91;691009;28;830;-81
2022/04/16 00:14:06;;;;;;;24.23;15.60;;;;;;;6.27;65.24;102437.09;685562;28;1192;-81
2022/04/16 00:14:27;;;;;;;25.33;15.80;;;;;;;6.19;65.08;102424.38;685021;28;1160;-81
2022/04/16 00:14:49;;;;;;;23.98;15.82;;;;;;;6.32;65.25;102446.91;683600;28;858;-81
2022/04/16 00:15:10;;;;;;;24.05;15.45;;;;;;;6.20;64.94;102423.59;688053;28;1392;-81
2022/04/16 00:15:31;;;;;;;24.80;15.70;;;;;;;6.22;65.10;102424.59;687810;28;1095;-81
2022/04/16 00:15:52;;;;;;;26.27;15.63;;;;;;;6.28;65.35;102441.47;690517;28;913;-81
2022/04/16 00:16:14;;;;;;;24.90;15.60;;;;;;;6.28;65.22;102438.88;691411;28;1604;-81
2022/04/16 00:16:34;;;;;;;23.90;15.82;;;;;;;6.26;65.46;102430.09;684996;28;1134;-81
2022/04/16 00:16:55;;;;;;;23.20;16.37;;;;;;;6.22;65.33;102429.78;685791;28;1690;-81
2022/04/16 00:17:16;;;;;;;23.48;16.65;;;;;;;6.29;65.04;102443.31;684699;28;1148;-81
2022/04/16 00:17:37;;;;;;;24.50;16.35;;;;;;;6.21;65.18;102425.38;685212;28;975;-81
2022/04/16 00:17:58;;;;;;;24.80;16.20;;;;;;;6.29;64.99;102438.13;691045;28;1263;-81
2022/04/16 00:18:19;;;;;;;26.17;16.10;;;;;;;6.25;65.46;102432.59;692559;28;1611;-81
2022/04/16 00:18:39;;;;;;;23.52;15.88;;;;;;;6.21;65.30;102428.91;692720;28;1445;-81
2022/04/16 00:19:00;;;;;;;23.42;15.43;;;;;;;6.19;65.28;102414.00;687823;28;1171;-81
2022/04/16 00:19:21;;;;;;;23.05;15.70;;;;;;;6.15;65.09;102416.38;684946;28;1061;-81
2022/04/16 00:19:42;;;;;;;24.52;16.08;;;;;;;6.20;65.18;102424.47;687026;28;1144;-81
2022/04/16 00:20:07;;;;;;;22.83;15.90;;;;;;;6.25;65.00;102436.09;690380;28;1471;-81
2022/04/16 00:20:27;;;;;;;23.75;15.55;;;;;;;6.26;65.25;102442.19;687469;28;1914;-81
2022/04/16 00:20:49;;;;;;;23.10;15.20;;;;;;;6.27;65.25;102438.81;682571;28;1231;-81
2022/04/16 00:21:10;;;;;;;22.20;15.13;;;;;;;6.18;65.35;102422.59;685005;28;1274;-81
2022/04/16 00:21:31;;;;;;;21.55;15.10;;;;;;;6.14;64.83;102422.34;685050;28;1081;-81
2022/04/16 00:21:51;;;;;;;20.70;14.80;;;;;;;6.23;65.21;102437.69;687687;28;787;-81
2022/04/16 00:22:12;;;;;;;18.50;13.95;;;;;;;6.11;64.99;102416.94;691973;28;1111;-81
2022/04/16 00:22:33;;;;;;;19.67;13.90;;;;;;;6.14;65.20;102424.94;693272;28;988;-81
2022/04/16 00:22:54;;;;;;;21.43;14.10;;;;;;;6.24;65.39;102444.66;690696;28;1067;-81
2022/04/16 00:23:16;;;;;;;22.17;14.40;;;;;;;6.09;65.06;102420.22;687724;28;977;-81
2022/04/16 00:23:37;;;;;;;21.05;14.50;;;;;;;6.20;65.12;102442.63;684982;28;1246;-81
2022/04/16 00:23:58;;;;;;;19.67;14.48;;;;;;;6.12;64.87;102436.88;683058;28;1160;-80
2022/04/16 00:24:19;;;;;;;18.95;14.10;;;;;;;6.10;64.84;102425.53;689303;28;1678;-81
2022/04/16 00:24:40;;;;;;;20.20;14.33;;;;;;;6.09;65.16;102427.97;690475;28;1051;-81
2022/04/16 00:25:01;;;;;;;20.45;14.02;;;;;;;6.03;65.32;102412.91;691968;28;1320;-82
2022/04/16 00:25:22;;;;;;;21.77;14.80;;;;;;;6.02;65.29;102424.94;690677;28;1526;-81
2022/04/16 00:25:43;;;;;;;21.88;14.35;;;;;;;6.03;64.89;102429.31;686373;28;1347;-81
2022/04/16 00:26:03;;;;;;;22.23;14.52;;;;;;;6.08;65.02;102437.44;689392;28;1290;-81
2022/04/16 00:26:24;;;;;;;23.37;14.97;;;;;;;6.01;64.91;102425.72;690484;28;784;-81
2022/04/16 00:26:46;;;;;;;25.17;15.50;;;;;;;6.01;65.48;102424.81;688388;28;1753;-82
2022/04/16 00:27:08;;;;;;;25.70;15.77;;;;;;;5.98;65.42;102422.94;689204;28;1245;-81
2022/04/16 00:27:29;;;;;;;23.35;15.35;;;;;;;6.00;65.28;102429.13;688818;28;1754;-81
2022/04/16 00:27:50;;;;;;;22.40;15.17;;;;;;;6.00;65.56;102434.31;687713;28;1141;-81
2022/04/16 00:28:10;;;;;;;22.50;15.20;;;;;;;5.93;65.53;102416.50;687448;28;1278;-81
2022/04/16 00:28:31;;;;;;;21.45;14.90;;;;;;;5.97;64.99;102426.31;687451;28;1114;-81
2022/04/16 00:28:51;;;;;;;22.20;15.00;;;;;;;5.95;65.67;102421.81;690416;28;881;-81
2022/04/16 00:29:12;;;;;;;22.45;14.82;;;;;;;6.02;65.57;102437.91;690320;28;1595;-81
2022/04/16 00:29:34;;;;;;;22.95;14.73;;;;;;;6.06;65.61;102439.03;681216;29;1205;-81
2022/04/16 00:29:55;;;;;;;23.15;15.10;;;;;;;6.00;65.21;102429.13;682281;29;1398;-81
2022/04/16 00:30:19;;;;;;;22.73;15.10;;;;;;;6.03;65.17;102434.50;682366;29;996;-80
2022/04/16 00:30:40;;;;;;;22.63;14.95;;;;;;;6.07;65.34;102442.53;682436;29;911;-79
2022/04/16 00:31:01;;;;;;;23.35;14.60;;;;;;;6.08;65.01;102446.94;682238;28;1279;-79
2022/04/16 00:31:22;;;;;;;23.00;14.90;;;;;;;6.00;65.19;102442.06;682410;29;1739;-80
2022/04/16 00:31:45;;;;;;;21.90;15.20;;;;;;;5.94;65.22;102422.59;684694;28;1049;-80
2022/04/16 00:32:06;;;;;;;23.80;15.25;;;;;;;6.02;65.08;102445.69;685968;28;1174;-79
2022/04/16 00:32:27;;;;;;;23.98;15.23;;;;;;;5.95;65.43;102443.41;687717;28;1335;-79
2022/04/16 00:32:51;;;;;;;25.15;15.88;;;;;;;5.94;65.18;102439.03;685002;28;1424;-79
2022/04/16 00:33:12;;;;;;;21.58;15.07;;;;;;;5.95;65.17;102440.81;688977;28;1357;-80
2022/04/16 00:33:33;;;;;;;22.67;15.10;;;;;;;5.92;65.41;102435.44;690297;28;968;-80
2022/04/16 00:33:54;;;;;;;24.25;14.90;;;;;;;5.96;65.31;102442.63;690255;28;1290;-80
2022/04/16 00:34:14;;;;;;;24.20;14.63;;;;;;;5.96;65.52;102440.03;690429;28;1117;-80
2022/04/16 00:34:35;;;;;;;21.63;14.33;;;;;;;5.96;65.54;102439.16;687751;28;938;-80
2022/04/16 00:34:56;;;;;;;22.70;15.40;;;;;;;6.01;65.54;102446.47;688111;28;1182;-80
2022/04/16 00:35:16;;;;;;;23.67;15.77;;;;;;;5.94;65.33;102432.97;687803;28;993;-80
2022/04/16 00:35:42;;;;;;;24.07;15.83;;;;;;;6.00;65.39;102444.66;693166;28;1037;-79
2022/04/16 00:36:02;;;;;;;22.70;14.85;;;;;;;5.96;65.48;102445.22;693168;28;1115;-80
2022/04/16 00:36:23;;;;;;;22.67;15.23;;;;;;;5.95;65.33;102439.94;688710;28;1678;-80
2022/04/16 00:36:44;;;;;;;21.30;14.67;;;;;;;6.00;65.38;102454.13;689463;28;909;-79
2022/04/16 00:37:05;;;;;;;20.70;14.55;;;;;;;5.93;65.46;102437.22;688702;28;1190;-79
2022/04/16 00:37:25;;;;;;;22.10;14.47;;;;;;;5.97;65.09;102444.44;690956;28;1492;-80
2022/04/16 00:37:46;;;;;;;23.40;15.02;;;;;;;5.93;65.55;102442.41;693152;28;799;-80
2022/04/16 00:38:06;;;;;;;23.25;15.38;;;;;;;5.92;65.05;102437.09;686940;28;1142;-80
2022/04/16 00:38:27;;;;;;;21.73;15.63;;;;;;;5.94;65.33;102446.81;687170;28;933;-79
2022/04/16 00:38:48;;;;;;;22.33;15.77;;;;;;;5.96;65.40;102450.41;688160;28;779;-80
2022/04/16 00:39:09;;;;;;;22.42;15.40;;;;;;;5.92;65.41;102434.50;690216;28;1127;-80
2022/04/16 00:39:30;;;;;;;23.85;15.40;;;;;;;5.91;65.33;102433.63;689851;28;1828;-80
2022/04/16 00:39:52;;;;;;;22.23;15.07;;;;;;;5.96;65.38;102445.22;687500;28;1372;-79
2022/04/16 00:40:16;;;;;;;22.25;14.70;;;;;;;5.87;65.15;102431.59;684971;28;1424;-80
2022/04/16 00:40:37;;;;;;;20.90;14.60;;;;;;;5.91;65.45;102443.06;684963;28;1918;-79
2022/04/16 00:40:57;;;;;;;21.35;14.98;;;;;;;5.96;65.50;102449.50;689506;28;1481;-80
2022/04/16 00:41:18;;;;;;;21.92;15.20;;;;;;;5.81;65.08;102426.84;684976;28;1469;-80
2022/04/16 00:41:39;;;;;;;22.93;15.63;;;;;;;5.93;65.03;102441.50;684506;28;991;-80
2022/04/16 00:42:00;;;;;;;23.35;15.45;;;;;;;5.89;65.20;102443.88;685999;28;1100;-79
2022/04/16 00:42:21;;;;;;;23.45;15.57;;;;;;;5.85;65.26;102434.09;684946;28;1767;-80
2022/04/16 00:42:45;;;;;;;23.07;15.67;;;;;;;5.87;65.45;102439.34;685088;28;1062;-80
2022/04/16 00:43:06;;;;;;;21.95;15.77;;;;;;;5.90;64.93;102447.38;686755;28;1112;-79
2022/04/16 00:43:28;;;;;;;22.35;15.40;;;;;;;5.86;65.47;102445.31;686095;28;1071;-79
2022/04/16 00:43:52;;;;;;;24.83;15.27;;;;;;;5.88;65.12;102448.94;688863;28;839;-81
2022/04/16 00:44:13;;;;;;;24.73;14.50;;;;;;;5.84;65.14;102439.13;691419;28;1713;-80
2022/04/16 00:44:34;;;;;;;24.50;14.77;;;;;;;5.84;65.08;102442.63;693114;28;1320;-80
2022/04/16 00:44:55;;;;;;;23.58;14.70;;;;;;;5.85;65.26;102443.53;693133;28;1165;-79
2022/04/16 00:45:15;;;;;;;23.52;14.80;;;;;;;5.83;65.33;102442.53;692955;28;1242;-80
2022/04/16 00:45:37;;;;;;;23.85;14.63;;;;;;;5.83;65.37;102434.75;690315;28;1251;-79
2022/04/16 00:45:59;;;;;;;20.63;14.32;;;;;;;5.87;65.15;102441.94;693094;28;1190;-80
2022/04/16 00:46:20;;;;;;;21.58;14.73;;;;;;;5.85;65.44;102440.94;691098;28;1751;-79
2022/04/16 00:46:44;;;;;;;22.60;14.82;;;;;;;5.84;65.03;102441.72;693154;28;1072;-80
2022/04/16 00:47:05;;;;;;;22.67;14.80;;;;;;;5.82;65.25;102433.84;690341;28;1162;-79
2022/04/16 00:47:25;;;;;;;21.17;14.20;;;;;;;5.77;65.14;102431.69;690383;28;1140;-79
2022/04/16 00:47:46;;;;;;;20.83;14.90;;;;;;;5.79;65.39;102438.81;693173;28;1239;-79
2022/04/16 00:48:08;;;;;;;22.03;15.37;;;;;;;5.78;65.44;102436.09;690265;28;1362;-79
2022/04/16 00:48:28;;;;;;;23.85;15.70;;;;;;;5.83;65.24;102445.13;690429;28;913;-80
2022/04/16 00:48:49;;;;;;;25.08;15.50;;;;;;;5.77;65.60;102429.09;687796;28;1061;-80
2022/04/16 00:49:13;;;;;;;24.73;15.25;;;;;;;5.75;65.22;102439.34;695879;28;1421;-79
2022/04/16 00:49:34;;;;;;;25.33;15.43;;;;;;;5.75;65.43;102435.06;692582;28;1366;-80
2022/04/16 00:49:56;;;;;;;23.25;15.00;;;;;;;5.81;65.10;102444.06;690148;28;1590;-79
2022/04/16 00:50:16;;;;;;;22.08;15.27;;;;;;;5.83;65.21;102451.19;684931;28;1752;-79
2022/04/16 00:50:37;;;;;;;22.63;15.48;;;;;;;5.72;65.48;102423.59;687795;28;1113;-79
2022/04/16 00:50:59;;;;;;;22.80;15.50;;;;;;;5.75;65.38;102437.66;688413;28;1286;-80
2022/04/16 00:51:20;;;;;;;22.58;15.02;;;;;;;5.84;65.56;102449.50;685495;28;1422;-80
2022/04/16 00:51:47;;;;;;;22.40;14.77;;;;;;;5.75;65.35;102437.66;685060;28;946;-80
2022/04/16 00:52:08;;;;;;;21.35;14.80;;;;;;;5.75;65.52;102429.91;684362;28;1124;-80
2022/04/16 00:52:29;;;;;;;21.67;14.63;;;;;;;5.79;65.70;102443.06;681943;29;1084;-80
2022/04/16 00:52:49;;;;;;;22.30;15.07;;;;;;;5.72;65.18;102427.06;682436;29;832;-79
2022/04/16 00:53:25;;;;;;;24.57;15.57;;;;;;;5.78;65.36;102434.41;684902;28;1101;-79
2022/04/16 00:53:46;;;;;;;24.05;14.60;;;;;;;5.82;65.31;102445.91;687087;28;1590;-80
2022/04/16 00:54:06;;;;;;;23.02;14.35;;;;;;;5.73;65.66;102434.06;689400;28;1171;-80
2022/04/16 00:54:27;;;;;;;20.50;14.40;;;;;;;5.77;65.40;102439.47;687439;28;1726;-80
2022/04/16 00:54:50;;;;;;;22.42;14.85;;;;;;;5.71;65.52;102433.03;687627;28;1233;-79
2022/04/16 00:55:12;;;;;;;27.85;15.15;;;;;;;5.74;65.52;102435.88;689930;28;1519;-80
2022/04/16 00:55:37;;;;;;;30.35;16.30;;;;;;;5.71;65.47;102433.03;692924;28;1004;-80
2022/04/16 00:55:58;;;;;;;27.05;16.23;;;;;;;5.74;65.50;102443.66;687534;28;1166;-79
2022/04/16 00:56:19;;;;;;;25.20;15.80;;;;;;;5.73;65.11;102439.25;687549;28;1663;-79
2022/04/16 00:56:40;;;;;;;24.23;15.50;;;;;;;5.73;65.37;102436.66;695789;28;1760;-79
2022/04/16 00:57:00;;;;;;;22.80;15.77;;;;;;;5.71;65.27;102438.22;695860;28;1253;-79
2022/04/16 00:57:23;;;;;;;22.80;15.82;;;;;;;5.71;65.58;102434.75;691715;28;1721;-80
2022/04/16 00:57:43;;;;;;;24.00;15.63;;;;;;;5.72;65.34;102440.00;688674;28;1013;-79
2022/04/16 00:58:05;;;;;;;26.27;15.48;;;;;;;5.75;65.26;102448.03;689157;28;1750;-80
2022/04/16 00:58:31;;;;;;;26.77;15.63;;;;;;;5.76;65.36;102448.91;690396;28;1155;-79
2022/04/16 00:58:52;;;;;;;24.23;15.20;;;;;;;5.63;65.42;102431.56;687749;28;2101;-80
2022/04/16 00:59:13;;;;;;;24.13;15.10;;;;;;;5.69;65.53;102442.38;685801;28;937;-80
2022/04/16 00:59:34;;;;;;;24.70;14.70;;;;;;;5.67;65.38;102443.97;687251;28;942;-80
2022/04/16 00:59:54;;;;;;;23.88;15.00;;;;;;;5.60;65.29;102427.03;687820;28;1210;-80
2022/04/16 01:00:15;;;;;;;22.35;14.75;;;;;;;5.67;65.40;102436.19;687525;28;1683;-79
2022/04/16 01:00:36;;;;;;;21.58;14.60;;;;;;;5.67;65.54;102440.47;687570;28;1918;-79
2022/04/16 01:00:57;;;;;;;22.15;14.35;;;;;;;5.67;65.41;102438.78;687893;28;1349;-79
2022/04/16 01:01:18;;;;;;;21.60;14.65;;;;;;;5.67;65.13;102443.97;690741;28;1516;-80
2022/04/16 01:01:38;;;;;;;23.03;15.27;;;;;;;5.66;65.29;102441.25;688201;28;1262;-80
2022/04/16 01:01:59;;;;;;;23.08;15.32;;;;;;;5.62;65.14;102429.75;692936;28;1303;-80
2022/04/16 01:02:20;;;;;;;23.83;15.73;;;;;;;5.65;65.11;102437.75;693009;28;1736;-80
2022/04/16 01:02:42;;;;;;;22.40;15.20;;;;;;;5.64;65.13;102432.47;687341;28;1757;-79
2022/04/16 01:03:07;;;;;;;22.55;15.15;;;;;;;5.68;65.41;102444.84;690382;28;1123;-80
2022/04/16 01:03:27;;;;;;;22.05;14.88;;;;;;;5.64;65.38;102433.34;690346;28;938;-79
2022/04/16 01:03:48;;;;;;;23.17;14.83;;;;;;;5.62;65.41;102434.94;684993;28;1107;-79
2022/04/16 01:04:09;;;;;;;24.05;14.98;;;;;;;5.66;65.45;102442.16;690519;28;1104;-80
2022/04/16 01:04:30;;;;;;;24.58;14.88;;;;;;;5.63;65.49;102428.09;690204;28;1754;-80
2022/04/16 01:04:51;;;;;;;22.77;14.50;;;;;;;5.60;65.24;102428.75;690524;28;1184;-80
2022/04/16 01:05:12;;;;;;;22.70;15.02;;;;;;;5.69;65.30;102446.66;687478;28;1325;-79
2022/04/16 01:05:33;;;;;;;22.45;15.07;;;;;;;5.61;65.13;102434.03;682176;28;1397;-79
2022/04/16 01:05:55;;;;;;;23.17;15.20;;;;;;;5.64;65.10;102443.72;684977;28;1080;-79
2022/04/16 01:06:17;;;;;;;21.67;14.50;;;;;;;5.62;65.26;102429.75;684987;28;1253;-80
2022/04/16 01:06:38;;;;;;;23.65;15.02;;;;;;;5.59;65.31;102429.53;684908;28;942;-79
2022/04/16 01:06:59;;;;;;;24.75;16.02;;;;;;;5.59;65.30;102429.53;685954;28;1179;-79
2022/04/16 01:07:26;;;;;;;25.00;16.50;;;;;;;5.57;65.26;102431.09;687765;28;1000;-80
2022/04/16 01:08:04;;;;;;;23.08;15.73;;;;;;;5.60;65.11;102440.00;685086;28;835;-80
2022/04/16 01:08:25;;;;;;;25.77;15.45;;;;;;;5.54;65.39;102428.28;690591;28;1678;-79
2022/04/16 01:08:46;;;;;;;25.67;15.93;;;;;;;5.57;65.39;102436.25;690440;28;748;-80
2022/04/16 01:09:07;;;;;;;23.42;15.40;;;;;;;5.61;65.43;102448.69;691336;28;1769;-79
2022/04/16 01:09:27;;;;;;;21.95;15.52;;;;;;;5.53;65.68;102435.13;690007;28;1068;-79
2022/04/16 01:09:48;;;;;;;21.48;15.35;;;;;;;5.54;65.50;102438.63;684615;28;1169;-80
2022/04/16 01:10:09;;;;;;;24.10;16.20;;;;;;;5.51;65.50;102434.13;685307;28;1029;-80
2022/04/16 01:10:33;;;;;;;23.33;15.68;;;;;;;5.54;65.35;102442.16;687560;28;1734;-80
2022/04/16 01:10:53;;;;;;;24.75;15.30;;;;;;;5.49;65.37;102433.13;684935;28;1339;-79
2022/04/16 01:11:15;;;;;;;22.37;14.63;;;;;;;5.51;65.34;102441.91;687543;28;1714;-80
2022/04/16 01:11:36;;;;;;;21.13;14.40;;;;;;;5.49;65.54;102433.13;687643;28;1360;-80
2022/04/16 01:11:56;;;;;;;22.60;14.30;;;;;;;5.47;65.45;102433.00;690004;28;1446;-79
2022/04/16 01:12:17;;;;;;;23.07;14.30;;;;;;;5.51;65.48;102436.72;688729;28;1666;-79
2022/04/16 01:12:38;;;;;;;23.52;14.73;;;;;;;5.50;65.62;102436.59;690517;28;1085;-80
2022/04/16 01:13:04;;;;;;;21.90;14.77;;;;;;;5.50;65.41;102434.00;689624;28;1107;-80
2022/04/16 01:13:24;;;;;;;23.23;14.70;;;;;;;5.48;65.50;102428.72;688028;28;1843;-80
2022/04/16 01:13:48;;;;;;;24.02;15.05;;;;;;;5.52;65.16;102437.63;690366;28;1097;-79
2022/04/16 01:14:09;;;;;;;24.48;14.70;;;;;;;5.48;65.52;102428.72;689523;28;1083;-80
2022/04/16 01:14:30;;;;;;;23.88;14.60;;;;;;;5.54;65.32;102442.16;690234;28;831;-80
2022/04/16 01:14:51;;;;;;;23.65;14.48;;;;;;;5.49;65.63;102438.28;684665;28;1685;-80
2022/04/16 01:15:13;;;;;;;26.63;15.35;;;;;;;5.45;65.41;102431.97;692672;28;1381;-80
2022/04/16 01:15:33;;;;;;;26.67;15.77;;;;;;;5.48;65.29;102433.91;684706;28;1309;-80
2022/04/16 01:15:54;;;;;;;26.03;15.30;;;;;;;5.54;65.47;102451.59;690190;28;1456;-79
2022/04/16 01:16:15;;;;;;;22.30;15.00;;;;;;;5.47;65.36;102435.56;687583;28;1158;-80
2022/04/16 01:16:35;;;;;;;22.58;15.00;;;;;;;5.43;65.34;102419.69;687563;28;1313;-80
2022/04/16 01:16:57;;;;;;;21.50;14.80;;;;;;;5.41;65.62;102416.97;693400;28;1221;-80
2022/04/16 01:17:17;;;;;;;23.02;15.20;;;;;;;5.43;65.25;102422.28;690228;28;1152;-79
2022/04/16 01:17:38;;;;;;;21.70;14.93;;;;;;;5.43;65.38;102425.78;687747;28;1019;-80
2022/04/16 01:18:02;;;;;;;22.42;14.80;;;;;;;5.47;65.27;102429.50;682869;28;1631;-79
2022/04/16 01:18:23;;;;;;;23.30;14.40;;;;;;;5.48;65.33;102437.38;685029;28;769;-79
2022/04/16 01:18:47;;;;;;;23.80;14.97;;;;;;;5.50;65.67;102434.00;687639;28;1046;-80
2022/04/16 01:19:21;;;;;;;23.27;15.40;;;;;;;5.50;65.63;102439.19;687530;28;1997;-80
2022/04/16 01:19:42;;;;;;;24.15;15.30;;;;;;;5.46;65.26;102432.91;684368;28;1040;-79
2022/04/16 01:20:03;;;;;;;26.00;15.50;;;;;;;5.48;65.14;102436.50;686101;28;1370;-79
2022/04/16 01:20:24;;;;;;;23.85;15.48;;;;;;;5.46;65.32;102432.91;687271;28;901;-79
2022/04/16 01:20:45;;;;;;;25.50;15.88;;;;;;;5.40;65.56;102422.06;685076;28;865;-79
2022/04/16 01:21:07;;;;;;;24.30;15.65;;;;;;;5.42;65.36;102426.56;686630;28;1120;-80
2022/04/16 01:21:28;;;;;;;24.40;15.52;;;;;;;5.50;65.50;102446.94;684749;28;1711;-80
2022/04/16 01:21:49;;;;;;;26.20;15.55;;;;;;;5.47;65.50;102434.69;682349;28;855;-80
2022/04/16 01:22:14;;;;;;;25.15;15.68;;;;;;;5.54;65.35;102446.41;686615;28;1160;-79
2022/04/16 01:22:34;;;;;;;23.92;15.48;;;;;;;5.42;65.63;102428.25;684963;28;852;-79
2022/04/16 01:22:56;;;;;;;22.53;15.60;;;;;;;5.45;64.96;102434.56;685368;28;1280;-80
2022/04/16 01:23:17;;;;;;;24.40;15.60;;;;;;;5.48;65.32;102446.84;693208;28;1005;-80
2022/04/16 01:23:37;;;;;;;24.23;15.52;;;;;;;5.43;65.49;102430.97;691389;28;1942;-80
2022/04/16 01:23:58;;;;;;;22.43;15.27;;;;;;;5.46;65.44;102438.97;689509;28;1151;-79
2022/04/16 01:24:19;;;;;;;23.50;14.90;;;;;;;5.46;65.36;102432.91;685499;28;1517;-79
2022/04/16 01:24:43;;;;;;;25.30;15.17;;;;;;;5.41;65.42;102429.94;687589;28;1159;-80
2022/04/16 01:25:04;;;;;;;25.40;15.20;;;;;;;5.44;65.21;102434.44;684816;28;1143;-80
2022/04/16 01:25:27;;;;;;;25.63;15.77;;;;;;;5.44;65.28;102440.53;685066;28;1798;-80
2022/04/16 01:25:47;;;;;;;25.05;15.43;;;;;;;5.42;65.12;102436.03;690318;28;1166;-80
2022/04/16 01:26:08;;;;;;;25.23;16.07;;;;;;;5.47;65.11;102445.06;685351;28;1668;-80
2022/04/16 01:26:29;;;;;;;24.90;16.15;;;;;;;5.44;65.06;102439.63;690222;28;1036;-80
2022/04/16 01:26:51;;;;;;;25.23;16.80;;;;;;;5.46;65.27;102443.25;690461;28;941;-80
2022/04/16 01:27:11;;;;;;;23.80;16.33;;;;;;;5.43;65.49;102438.75;687472;28;1779;-80
2022/04/16 01:27:33;;;;;;;25.33;16.25;;;;;;;5.44;65.02;102440.53;690720;28;877;-80
2022/04/16 01:27:54;;;;;;;27.45;16.70;;;;;;;5.44;65.45;102440.53;690360;28;1428;-79
2022/04/16 01:28:14;;;;;;;26.87;16.83;;;;;;;5.42;65.43;102441.19;687650;28;945;-79
2022/04/16 01:28:35;;;;;;;26.13;17.17;;;;;;;5.44;65.31;102445.72;684900;28;1120;-79
2022/04/16 01:28:56;;;;;;;23.17;16.35;;;;;;;5.39;65.47;102436.69;690625;28;1533;-79
2022/04/16 01:29:17;;;;;;;24.10;16.10;;;;;;;5.39;65.41;102436.69;695794;28;1296;-79
2022/04/16 01:29:40;;;;;;;24.30;15.75;;;;;;;5.43;65.22;102446.50;691967;28;1043;-80
2022/04/16 01:30:03;;;;;;;25.75;16.05;;;;;;;5.35;65.49;102429.47;688608;28;1374;-80
2022/04/16 01:30:24;;;;;;;24.48;15.95;;;;;;;5.37;65.31;102433.09;684772;28;1316;-79
2022/04/16 01:30:46;;;;;;;24.90;15.65;;;;;;;5.41;65.13;102448.06;682029;29;1103;-80
2022/04/16 01:31:07;;;;;;;24.17;15.70;;;;;;;5.41;65.57;102444.56;684793;28;1196;-81
2022/04/16 01:31:30;;;;;;;25.95;15.93;;;;;;;5.30;65.38;102430.81;684795;28;1747;-79
2022/04/16 01:31:50;;;;;;;25.38;16.00;;;;;;;5.39;65.46;102446.16;687556;28;1101;-80
2022/04/16 01:32:11;;;;;;;24.95;15.77;;;;;;;5.37;65.51;102437.34;692699;28;1126;-79
2022/04/16 01:32:33;;;;;;;23.52;15.50;;;;;;;5.28;65.59;102432.38;690087;28;1797;-79
2022/04/16 01:32:53;;;;;;;22.20;15.20;;;;;;;5.33;65.17;102437.13;693179;28;1179;-80
2022/04/16 01:33:16;;;;;;;22.45;15.15;;;;;;;5.32;65.30;102430.16;690751;28;1807;-79
2022/04/16 01:33:36;;;;;;;24.92;15.63;;;;;;;5.31;65.50;102437.78;690239;28;1004;-80
2022/04/16 01:33:57;;;;;;;23.93;15.03;;;;;;;5.35;65.16;102445.03;690150;28;1131;-79
2022/04/16 01:34:18;;;;;;;26.33;15.48;;;;;;;5.32;65.61;102437.00;687751;28;1083;-79
2022/04/16 01:34:40;;;;;;;23.25;15.20;;;;;;;5.28;65.31;102433.28;687573;28;926;-80
2022/04/16 01:35:00;;;;;;;24.92;16.05;;;;;;;5.31;65.20;102432.59;687543;28;1281;-79
2022/04/16 01:35:21;;;;;;;25.00;16.27;;;;;;;5.36;65.57;102445.91;687519;28;1047;-79
2022/04/16 01:35:42;;;;;;;25.50;16.23;;;;;;;5.31;65.38;102432.59;684842;28;1384;-80
2022/04/16 01:36:03;;;;;;;26.43;16.30;;;;;;;5.37;65.49;102443.44;682283;29;1239;-80
2022/04/16 01:36:25;;;;;;;26.30;16.23;;;;;;;5.39;65.39;102454.81;682183;28;1205;-79
2022/04/16 01:36:46;;;;;;;30.13;16.85;;;;;;;5.35;65.32;102447.59;684901;28;1744;-79
2022/04/16 01:37:09;;;;;;;27.33;16.17;;;;;;;5.36;65.49;102446.81;684087;28;1168;-80
2022/04/16 01:37:33;;;;;;;23.13;15.85;;;;;;;5.26;65.11;102437.44;684813;28;1067;-80
2022/04/16 01:37:54;;;;;;;22.83;16.17;;;;;;;5.32;65.44;102443.09;690265;28;1484;-79
2022/04/16 01:38:18;;;;;;;23.80;16.35;;;;;;;5.37;65.32;102446.03;692905;28;1748;-80
2022/04/16 01:38:39;;;;;;;23.92;15.57;;;;;;;5.33;65.34;102447.47;690363;28;869;-80
2022/04/16 01:39:01;;;;;;;23.23;15.20;;;;;;;5.38;65.10;102454.69;685020;28;1068;-80
2022/04/16 01:39:22;;;;;;;23.15;15.35;;;;;;;5.29;65.28;102444.53;682293;29;861;-80
2022/04/16 01:39:42;;;;;;;23.30;15.40;;;;;;;5.31;65.20;102450.72;684253;28;1148;-80
2022/04/16 01:40:11;;;;;;;22.95;15.30;;;;;;;5.35;65.30;102455.38;687887;28;1195;-79
2022/04/16 01:40:32;;;;;;;20.63;14.30;;;;;;;5.33;65.40;102449.16;693559;28;1977;-79
2022/04/16 01:40:57;;;;;;;20.10;14.15;;;;;;;5.34;65.32;102448.41;690998;28;1286;-80
2022/04/16 01:41:21;;;;;;;21.40;14.48;;;;;;;5.29;65.21;102449.72;688147;28;1157;-80
2022/04/16 01:41:41;;;;;;;22.90;15.20;;;;;;;5.26;65.55;102440.03;690367;28;1335;-79